Terminal Aerodrome Forecast
Issued by NWS Duluth, MN

Home | Current Version | Previous Version | Text Only | Print | Product List | Glossary On
Versions: 1 2 3 4 5 6 7 8 9 10 11 12 13 14 15 16 17 18 19
000
FTUS43 KDLH 191100
TAFDLH
TAF
KDLH 191138Z 1912/2012 11018G25KT P6SM -RA OVC060
      TEMPO 1912/1913 3SM -RA OVC035
     FM191300 14014G22KT 5SM -RA BR OVC035
      TEMPO 1913/1917 2SM -RA OVC025
     FM191800 18009KT P6SM VCSH BKN060
     FM192200 15008KT P6SM SCT060=

USA.gov is the U.S. government's official web portal to all federal, state and local government web resources and services.